Vienna, VA (22181)

5:24 PM EST on December 25, 2014 (GMT -0500)
Trott Ave | Change Station
CLOSE
Current Station
Personal Weather Station
Location: Vienna, VA
Elevation: 415 ft
Nearby Weather Stations

Elev 415 ft 38.90 °N, 77.30 °W | Updated 4 minutes ago

Clear
Clear
46.5 °F
Feels Like 46 °F
N
0.0
Wind Variable Wind from NW

Today
High -- | Low -- °F
--% Chance of Precip.
Yesterday
High -- | Low -- °F
Precip. -- in
7:25 AM 4:52 PM
Waxing Crescent, 19% visible
Pressure 30.09 in
Visibility 10.0 miles
Clouds Few 5000 ft
Windchill 46 °F
Dew Point 36 °F
Humidity 67%
Rainfall 0.00 in
Snow Depth Not available.
UV 0 out of 12
Pollen .10 out of 12
Air Quality Not available.
Flu Activity Not available.
METAR KIAD 252152Z 32006KT 10SM FEW050 08/M01 A3009 RMK AO2 SLP189 T00781011 $

More Conditions Fewer Conditions

Pressure 30.09 in
Visibility 10.0 miles
Clouds Few 5000 ft
Windchill 46 °F
Dew Point 36 °F
Humidity 67%
Rainfall 0.00 in
Snow Depth Not available.
UV 0 out of 12
Pollen .10 out of 12
Air Quality Not available.
Flu Activity Not available.
METAR KIAD 252152Z 32006KT 10SM FEW050 08/M01 A3009 RMK AO2 SLP189 T00781011 $

More Conditions Fewer Conditions

10-Day Weather Forecast

Almanac

Astronomy

Dec. 25, 2014 Rise Set
Actual Time
Civil Twilight
Nautical Twilight
Astronomical Twilight
Moon
Length of Visible Light
Length of Day
Tomorrow will be .
, % of the Moon is Illuminated

Today's Extremes

State Highs State Lows

Community

WunderPhotos

Upload Photos

1,780,427 photos uploaded!

WunderBlogs® & News

Nearby

Air Quality

  Air Quality AQ Index Pollutant
Not available.

Snow Depth

Station Depth Elevation

Earthquake Activity

City Distance Mag. Time & Date
Minimum magnitude displayed is 2.5.

Coastal Water Temperatures

Place Temperature

Nearby Weather Stations